createdAt,value
2023-01-27T00:02:33.824Z,74.12
2023-01-27T00:07:37.040Z,74.27
2023-01-27T00:13:07.116Z,74.35
2023-01-27T00:18:11.557Z,74.80
2023-01-27T00:23:34.963Z,74.92
2023-01-27T00:28:39.386Z,74.82
2023-01-27T00:33:45.886Z,75.03
2023-01-27T00:38:48.148Z,75.05
2023-01-27T00:43:53.291Z,74.92
2023-01-27T00:48:58.228Z,74.97
2023-01-27T00:54:03.068Z,75.14
2023-01-27T00:59:05.446Z,75.34
2023-01-27T01:04:08.100Z,75.36
2023-01-27T01:09:11.115Z,75.33
2023-01-27T01:14:13.831Z,75.20
2023-01-27T01:19:16.539Z,75.15
2023-01-27T01:24:19.757Z,75.33
2023-01-27T01:29:22.181Z,75.48
2023-01-27T01:34:24.633Z,75.45
2023-01-27T01:39:32.431Z,75.61
2023-01-27T01:44:34.656Z,75.54
2023-01-27T01:49:40.720Z,75.52
2023-01-27T01:54:56.885Z,75.51
2023-01-27T02:00:08.017Z,75.67
2023-01-27T02:05:40.677Z,75.89
2023-01-27T02:10:49.786Z,76.25
2023-01-27T02:15:56.102Z,76.68
2023-01-27T02:20:58.827Z,76.98
2023-01-27T02:26:17.312Z,76.86
2023-01-27T02:31:39.919Z,77.14
2023-01-27T02:36:56.507Z,77.41
2023-01-27T02:42:19.602Z,77.55
2023-01-27T02:47:31.045Z,77.68
2023-01-27T02:52:34.027Z,77.73
2023-01-27T02:57:36.470Z,77.06
2023-01-27T03:02:54.286Z,76.91
2023-01-27T03:07:57.023Z,76.85
2023-01-27T03:12:59.748Z,76.78
2023-01-27T03:18:11.604Z,76.90
2023-01-27T03:23:16.881Z,77.23
2023-01-27T03:28:22.773Z,77.19
2023-01-27T03:33:37.151Z,77.32
2023-01-27T03:39:14.173Z,77.05
2023-01-27T03:44:35.011Z,77.09
2023-01-27T03:49:39.384Z,76.97
2023-01-27T03:54:41.547Z,77.45
2023-01-27T03:59:48.048Z,77.12
2023-01-27T04:05:08.780Z,77.26
2023-01-27T04:10:11.862Z,77.22
2023-01-27T04:15:14.469Z,77.10
2023-01-27T04:20:38.066Z,77.23
2023-01-27T04:25:40.514Z,77.10
2023-01-27T04:30:44.060Z,76.97
2023-01-27T04:35:46.610Z,76.82
2023-01-27T04:40:48.826Z,76.90
2023-01-27T04:45:51.202Z,76.93
2023-01-27T04:50:53.910Z,77.01
2023-01-27T04:56:05.984Z,77.13
2023-01-27T05:01:07.980Z,77.17
2023-01-27T05:06:17.242Z,77.34
2023-01-27T05:11:20.200Z,77.60
2023-01-27T05:16:25.356Z,77.25
2023-01-27T05:21:28.495Z,77.11
2023-01-27T05:26:31.238Z,77.14
2023-01-27T05:31:33.527Z,77.00
2023-01-27T05:36:36.122Z,76.88
2023-01-27T05:41:38.252Z,76.94
2023-01-27T05:46:42.462Z,77.06
2023-01-27T05:51:48.303Z,76.96
2023-01-27T05:56:50.328Z,76.84
2023-01-27T06:01:52.742Z,76.89
2023-01-27T06:06:55.424Z,76.97
2023-01-27T06:11:57.707Z,76.85
2023-01-27T06:17:01.106Z,76.66
2023-01-27T06:22:12.464Z,76.52
2023-01-27T06:27:15.325Z,76.15
2023-01-27T06:32:17.464Z,76.02
2023-01-27T06:37:22.586Z,75.68
2023-01-27T06:42:25.448Z,75.54
2023-01-27T06:47:27.748Z,75.36
2023-01-27T06:52:30.435Z,75.40
2023-01-27T06:57:33.019Z,75.33
2023-01-27T07:02:38.222Z,75.12
2023-01-27T07:07:43.481Z,74.82
2023-01-27T07:12:45.459Z,74.51
2023-01-27T07:17:47.963Z,74.37
2023-01-27T07:22:53.416Z,74.26
2023-01-27T07:27:58.431Z,73.84
2023-01-27T07:33:10.784Z,73.41
2023-01-27T07:38:15.664Z,72.82
2023-01-27T07:43:18.166Z,72.83
2023-01-27T07:48:21.742Z,72.88
2023-01-27T07:53:23.840Z,72.34
2023-01-27T07:58:26.971Z,72.21
2023-01-27T08:03:29.396Z,71.72
2023-01-27T08:08:32.752Z,70.95
2023-01-27T08:13:36.193Z,70.96
2023-01-27T08:18:40.320Z,71.10
2023-01-27T08:23:42.888Z,70.85
2023-01-27T08:28:45.080Z,71.16
2023-01-27T08:33:53.285Z,71.21
2023-01-27T08:39:06.687Z,71.58
2023-01-27T08:44:12.184Z,71.12
2023-01-27T08:49:15.172Z,70.94
2023-01-27T08:54:17.812Z,70.99
2023-01-27T08:59:20.439Z,70.48
2023-01-27T09:04:23.196Z,70.80
2023-01-27T09:09:25.133Z,71.17
2023-01-27T09:14:27.619Z,71.30
2023-01-27T09:19:32.883Z,71.02
2023-01-27T09:24:35.330Z,71.39
2023-01-27T09:29:37.306Z,71.56
2023-01-27T09:34:39.775Z,71.54
2023-01-27T09:39:56.231Z,71.37
2023-01-27T09:45:38.705Z,71.43
2023-01-27T09:50:53.408Z,71.65
2023-01-27T09:56:20.875Z,71.66
2023-01-27T10:01:46.917Z,71.70
2023-01-27T10:07:07.410Z,73.44
2023-01-27T10:12:24.369Z,73.87
2023-01-27T10:18:15.598Z,73.88
2023-01-27T10:23:57.834Z,74.15
2023-01-27T10:29:23.283Z,74.37
2023-01-27T10:35:02.860Z,74.79
2023-01-27T10:40:16.316Z,74.81
2023-01-27T10:45:40.436Z,75.02
2023-01-27T10:51:02.026Z,74.74
2023-01-27T10:56:25.814Z,74.21
2023-01-27T11:01:38.672Z,73.97
2023-01-27T11:06:43.949Z,73.59
2023-01-27T11:11:50.139Z,73.36
2023-01-27T11:17:02.936Z,73.17
2023-01-27T11:22:20.055Z,73.12
2023-01-27T11:28:13.761Z,73.07
2023-01-27T11:33:51.761Z,73.00
2023-01-27T11:39:07.398Z,72.75
2023-01-27T11:44:23.257Z,72.71
2023-01-27T11:49:32.614Z,72.77
2023-01-27T11:54:42.157Z,72.27
2023-01-27T11:59:46.815Z,72.10
2023-01-27T12:05:04.076Z,71.92
2023-01-27T12:10:36.244Z,71.56
2023-01-27T12:15:58.973Z,71.37
2023-01-27T12:21:08.517Z,70.74
2023-01-27T12:26:12.233Z,70.47
2023-01-27T12:31:33.553Z,69.98
2023-01-27T12:36:44.495Z,69.30
2023-01-27T12:41:47.132Z,69.04
2023-01-27T12:47:35.593Z,68.33
2023-01-27T12:52:38.063Z,69.07
2023-01-27T12:57:43.735Z,68.82
2023-01-27T13:02:47.229Z,68.71
2023-01-27T13:07:53.192Z,68.98
2023-01-27T13:13:05.474Z,68.62
2023-01-27T13:18:23.796Z,68.55
2023-01-27T13:23:35.134Z,67.18
2023-01-27T13:29:13.347Z,67.12
2023-01-27T13:34:29.831Z,66.98
2023-01-27T13:39:51.926Z,66.86
2023-01-27T13:45:01.403Z,66.83
2023-01-27T13:50:16.682Z,65.98
2023-01-27T13:55:47.958Z,66.41
2023-01-27T14:01:25.483Z,66.61
2023-01-27T14:06:28.014Z,65.87
2023-01-27T14:11:47.573Z,65.60
2023-01-27T14:17:02.838Z,65.30
2023-01-27T14:22:26.033Z,65.54
2023-01-27T14:27:40.189Z,65.80
2023-01-27T14:33:03.033Z,65.83
2023-01-27T14:38:33.037Z,65.41
2023-01-27T14:43:51.983Z,65.48
2023-01-27T14:49:32.687Z,65.59
2023-01-27T14:54:58.926Z,65.49
2023-01-27T15:00:12.817Z,65.31
2023-01-27T15:06:13.722Z,65.07
2023-01-27T15:11:51.711Z,65.12
2023-01-27T15:17:12.769Z,65.24
2023-01-27T15:22:42.992Z,64.94
2023-01-27T15:27:47.388Z,65.12
2023-01-27T15:32:49.625Z,65.12
2023-01-27T15:38:17.980Z,64.80
2023-01-27T15:43:25.532Z,64.44
2023-01-27T15:48:34.358Z,64.36
2023-01-27T15:53:42.352Z,64.42
2023-01-27T15:58:58.308Z,64.71
2023-01-27T16:04:27.665Z,64.90
2023-01-27T16:09:51.998Z,64.95
2023-01-27T16:15:22.926Z,65.06
2023-01-27T16:20:37.886Z,65.06
2023-01-27T16:25:46.565Z,64.73
2023-01-27T16:31:03.511Z,64.28
2023-01-27T16:36:27.245Z,63.97
2023-01-27T16:41:36.217Z,63.84
2023-01-27T16:46:53.376Z,63.77
2023-01-27T16:52:01.673Z,63.67
2023-01-27T16:57:06.649Z,63.38
2023-01-27T17:02:20.378Z,63.70
2023-01-27T17:07:23.411Z,63.65
2023-01-27T17:12:34.731Z,63.94
2023-01-27T17:17:39.193Z,64.11
2023-01-27T17:22:44.479Z,64.22
2023-01-27T17:27:50.252Z,64.14
2023-01-27T17:33:00.639Z,64.19
2023-01-27T17:38:24.315Z,64.15
2023-01-27T17:43:39.347Z,64.36
2023-01-27T17:48:52.582Z,64.52
2023-01-27T17:53:56.778Z,64.56
2023-01-27T17:59:11.877Z,63.80
2023-01-27T18:04:15.589Z,64.30
2023-01-27T18:09:28.510Z,64.37
2023-01-27T18:14:37.089Z,65.08
2023-01-27T18:19:51.276Z,65.25
2023-01-27T18:24:57.474Z,65.40
2023-01-27T18:30:28.485Z,65.74
2023-01-27T18:35:34.984Z,66.00
2023-01-27T18:40:45.907Z,65.88
2023-01-27T18:45:50.608Z,65.99
2023-01-27T18:50:53.205Z,66.72
2023-01-27T18:55:55.723Z,67.45
2023-01-27T19:01:01.022Z,67.36
2023-01-27T19:06:03.919Z,66.85
2023-01-27T19:11:14.248Z,66.33
2023-01-27T19:16:19.695Z,66.11
2023-01-27T19:21:22.719Z,66.27
2023-01-27T19:26:27.551Z,65.60
2023-01-27T19:31:30.238Z,66.08
2023-01-27T19:36:42.447Z,66.39
2023-01-27T19:41:48.712Z,66.06
2023-01-27T19:46:59.971Z,65.58
2023-01-27T19:52:05.799Z,65.78
2023-01-27T19:57:15.908Z,65.44
2023-01-27T20:02:21.331Z,65.44
2023-01-27T20:07:26.093Z,65.59
2023-01-27T20:12:29.103Z,66.03
2023-01-27T20:17:32.785Z,66.17
2023-01-27T20:22:36.846Z,65.57
2023-01-27T20:27:39.519Z,65.77
2023-01-27T20:32:42.419Z,66.08
2023-01-27T20:37:48.656Z,66.43
2023-01-27T20:42:52.176Z,66.29
2023-01-27T20:47:54.390Z,66.26
2023-01-27T20:52:57.296Z,66.13
2023-01-27T20:58:02.444Z,66.21
2023-01-27T21:03:05.110Z,66.40
2023-01-27T21:08:07.353Z,66.29
2023-01-27T21:13:12.172Z,66.15
2023-01-27T21:18:20.722Z,66.28
2023-01-27T21:23:28.075Z,66.49
2023-01-27T21:28:31.948Z,66.43
2023-01-27T21:33:36.279Z,66.83
2023-01-27T21:38:40.058Z,66.59
2023-01-27T21:44:01.204Z,66.30
2023-01-27T21:49:04.025Z,66.46
2023-01-27T21:54:10.484Z,66.76
2023-01-27T21:59:13.043Z,66.46
2023-01-27T22:04:18.800Z,66.68
2023-01-27T22:09:24.049Z,66.95
2023-01-27T22:14:31.648Z,67.17
2023-01-27T22:19:39.212Z,67.06
2023-01-27T22:24:42.237Z,67.21
2023-01-27T22:29:44.882Z,67.26
2023-01-27T22:34:50.815Z,67.12
2023-01-27T22:39:55.875Z,67.12
2023-01-27T22:45:01.811Z,67.11
2023-01-27T22:50:08.802Z,67.31
2023-01-27T22:55:13.228Z,67.63
2023-01-27T23:00:21.004Z,68.60
2023-01-27T23:05:26.700Z,68.63
2023-01-27T23:10:29.264Z,69.45
2023-01-27T23:15:31.586Z,70.20
2023-01-27T23:20:34.951Z,70.83
2023-01-27T23:25:45.175Z,70.91
2023-01-27T23:30:53.848Z,71.36
2023-01-27T23:35:57.620Z,71.54
2023-01-27T23:41:04.756Z,71.23
2023-01-27T23:46:11.457Z,71.34
2023-01-27T23:51:20.113Z,71.17
2023-01-27T23:56:22.694Z,71.32
